createdAt,value
2022-12-26T00:00:12.611Z, 46.86
2022-12-26T00:01:12.544Z, 46.89
2022-12-26T00:02:12.605Z, 46.91
2022-12-26T00:03:12.664Z, 46.79
2022-12-26T00:04:50.707Z, 46.74
2022-12-26T00:05:12.611Z, 46.65
2022-12-26T00:06:12.635Z, 46.69
2022-12-26T00:07:12.627Z, 46.62
2022-12-26T00:08:12.624Z, 46.55
2022-12-26T00:09:12.632Z, 46.52
2022-12-26T00:10:12.632Z, 46.50
2022-12-26T00:11:12.716Z, 46.45
2022-12-26T00:12:12.716Z, 46.42
2022-12-26T00:13:37.620Z, 46.42
2022-12-26T00:14:12.748Z, 46.43
2022-12-26T00:15:12.787Z, 46.30
2022-12-26T00:16:12.915Z, 46.21
2022-12-26T00:17:12.771Z, 46.15
2022-12-26T00:18:12.773Z, 46.16
2022-12-26T00:19:12.763Z, 46.12
2022-12-26T00:20:12.765Z, 46.10
2022-12-26T00:21:12.778Z, 46.10
2022-12-26T00:22:12.859Z, 46.06
2022-12-26T00:23:12.837Z, 46.03
2022-12-26T00:24:12.877Z, 45.93
2022-12-26T00:25:12.855Z, 45.92
2022-12-26T00:26:12.919Z, 45.93
2022-12-26T00:27:12.869Z, 45.85
2022-12-26T00:28:12.884Z, 45.80
2022-12-26T00:29:12.882Z, 45.69
2022-12-26T00:30:12.926Z, 45.72
2022-12-26T00:31:12.909Z, 45.73
2022-12-26T00:32:12.911Z, 45.67
2022-12-26T00:33:12.985Z, 45.66
2022-12-26T00:34:12.973Z, 45.68
2022-12-26T00:35:12.973Z, 45.59
2022-12-26T00:36:12.983Z, 45.51
2022-12-26T00:37:12.975Z, 45.51
2022-12-26T00:38:13.068Z, 45.46
2022-12-26T00:39:13.047Z, 45.40
2022-12-26T00:40:13.047Z, 45.37
2022-12-26T00:41:13.043Z, 45.38
2022-12-26T00:42:13.071Z, 45.38
2022-12-26T00:43:13.068Z, 45.35
2022-12-26T00:44:13.066Z, 45.33
2022-12-26T00:45:13.085Z, 45.28
2022-12-26T00:46:13.085Z, 45.28
2022-12-26T00:47:13.140Z, 45.20
2022-12-26T00:48:13.093Z, 45.14
2022-12-26T00:49:13.177Z, 45.12
2022-12-26T00:50:15.709Z, 45.10
2022-12-26T00:51:13.190Z, 44.99
2022-12-26T00:52:13.168Z, 44.92
2022-12-26T00:53:13.215Z, 44.89
2022-12-26T00:54:13.205Z, 44.90
2022-12-26T00:55:13.221Z, 44.84
2022-12-26T00:56:13.263Z, 44.89
2022-12-26T00:57:13.243Z, 44.90
2022-12-26T00:58:13.280Z, 44.86
2022-12-26T00:59:13.275Z, 44.76
2022-12-26T01:00:13.294Z, 44.76
2022-12-26T01:01:13.376Z, 44.75
2022-12-26T01:02:13.490Z, 44.70
2022-12-26T01:03:13.386Z, 44.73
2022-12-26T01:04:13.303Z, 44.67
2022-12-26T01:05:13.305Z, 44.60
2022-12-26T01:06:13.336Z, 44.55
2022-12-26T01:07:13.346Z, 44.52
2022-12-26T01:08:21.244Z, 44.49
2022-12-26T01:09:13.429Z, 44.44
2022-12-26T01:10:13.397Z, 44.35
2022-12-26T01:11:13.461Z, 44.34
2022-12-26T01:12:13.437Z, 44.39
2022-12-26T01:13:13.433Z, 44.39
2022-12-26T01:14:13.461Z, 44.36
2022-12-26T01:15:13.505Z, 44.34
2022-12-26T01:16:13.579Z, 44.26
2022-12-26T01:17:13.510Z, 44.21
2022-12-26T01:18:13.550Z, 44.21
2022-12-26T01:19:13.507Z, 44.17
2022-12-26T01:20:13.530Z, 44.13
2022-12-26T01:21:13.531Z, 44.13
2022-12-26T01:22:13.527Z, 44.09
2022-12-26T01:23:13.517Z, 43.97
2022-12-26T01:24:13.518Z, 43.93
2022-12-26T01:25:13.535Z, 43.93
2022-12-26T01:26:16.980Z, 43.94
2022-12-26T01:27:13.645Z, 43.92
2022-12-26T01:28:13.633Z, 43.83
2022-12-26T01:29:13.642Z, 43.86
2022-12-26T01:30:13.655Z, 43.81
2022-12-26T01:31:13.675Z, 43.87
2022-12-26T01:32:13.721Z, 43.78
2022-12-26T01:33:13.679Z, 43.77
2022-12-26T01:34:13.688Z, 43.78
2022-12-26T01:35:13.676Z, 43.72
2022-12-26T01:36:13.687Z, 43.69
2022-12-26T01:37:13.777Z, 43.62
2022-12-26T01:38:13.749Z, 43.60
2022-12-26T01:39:13.761Z, 43.55
2022-12-26T01:40:13.788Z, 43.58
2022-12-26T01:41:13.782Z, 43.56
2022-12-26T01:42:13.781Z, 43.56
2022-12-26T01:43:13.799Z, 43.45
2022-12-26T01:44:13.777Z, 43.49
2022-12-26T01:45:13.784Z, 43.41
2022-12-26T01:46:13.818Z, 43.36
2022-12-26T01:47:13.808Z, 43.33
2022-12-26T01:48:13.899Z, 43.32
2022-12-26T01:49:13.886Z, 43.33
2022-12-26T01:50:13.918Z, 43.23
2022-12-26T01:51:13.889Z, 43.24
2022-12-26T01:52:13.928Z, 43.21
2022-12-26T01:53:13.919Z, 43.18
2022-12-26T01:54:40.130Z, 43.14
2022-12-26T01:55:13.968Z, 43.17
2022-12-26T01:56:13.995Z, 43.13
2022-12-26T01:57:13.965Z, 43.10
2022-12-26T01:58:13.984Z, 43.07
2022-12-26T01:59:13.997Z, 43.04
2022-12-26T02:00:14.056Z, 43.02
2022-12-26T02:01:14.233Z, 42.98
2022-12-26T02:02:14.216Z, 42.97
2022-12-26T02:03:14.105Z, 42.93
2022-12-26T02:04:14.043Z, 42.90
2022-12-26T02:05:14.051Z, 42.93
2022-12-26T02:06:14.047Z, 42.91
2022-12-26T02:07:14.145Z, 42.88
2022-12-26T02:08:14.116Z, 42.87
2022-12-26T02:09:14.124Z, 42.86
2022-12-26T02:10:14.181Z, 42.76
2022-12-26T02:11:14.153Z, 42.72
2022-12-26T02:12:34.721Z, 42.69
2022-12-26T02:13:14.162Z, 42.64
2022-12-26T02:14:14.155Z, 42.63
2022-12-26T02:15:14.232Z, 42.70
2022-12-26T02:16:14.276Z, 42.61
2022-12-26T02:17:14.209Z, 42.49
2022-12-26T02:18:14.211Z, 42.50
2022-12-26T02:19:14.212Z, 42.50
2022-12-26T02:20:14.272Z, 42.48
2022-12-26T02:21:14.263Z, 42.47
2022-12-26T02:22:14.258Z, 42.37
2022-12-26T02:23:14.265Z, 42.40
2022-12-26T02:24:14.306Z, 42.39
2022-12-26T02:25:14.292Z, 42.32
2022-12-26T02:26:14.290Z, 42.29
2022-12-26T02:27:14.316Z, 42.27
2022-12-26T02:28:14.315Z, 42.22
2022-12-26T02:29:14.441Z, 42.23
2022-12-26T02:30:14.401Z, 42.24
2022-12-26T02:31:14.403Z, 42.22
2022-12-26T02:32:14.564Z, 42.22
2022-12-26T02:33:14.415Z, 42.22
2022-12-26T02:34:14.404Z, 42.14
2022-12-26T02:35:14.436Z, 42.11
2022-12-26T02:36:14.428Z, 42.10
2022-12-26T02:37:14.477Z, 42.00
2022-12-26T02:38:14.465Z, 42.03
2022-12-26T02:39:43.755Z, 42.03
2022-12-26T02:40:14.509Z, 41.92
2022-12-26T02:41:14.481Z, 41.96
2022-12-26T02:42:14.545Z, 41.89
2022-12-26T02:43:14.519Z, 41.87
2022-12-26T02:44:14.581Z, 41.86
2022-12-26T02:45:14.546Z, 41.87
2022-12-26T02:46:14.579Z, 41.87
2022-12-26T02:47:14.598Z, 41.90
2022-12-26T02:48:14.589Z, 41.83
2022-12-26T02:49:14.595Z, 41.72
2022-12-26T02:50:14.599Z, 41.74
2022-12-26T02:51:14.592Z, 41.72
2022-12-26T02:52:14.631Z, 41.66
2022-12-26T02:53:14.592Z, 41.71
2022-12-26T02:54:14.629Z, 41.67
2022-12-26T02:55:14.637Z, 41.61
2022-12-26T02:56:14.628Z, 41.55
2022-12-26T02:57:14.654Z, 41.56
2022-12-26T02:58:14.702Z, 41.57
2022-12-26T02:59:14.691Z, 41.49
2022-12-26T03:00:14.756Z, 41.49
2022-12-26T03:01:14.825Z, 41.47
2022-12-26T03:02:14.969Z, 41.49
2022-12-26T03:03:14.861Z, 41.43
2022-12-26T03:04:14.734Z, 41.41
2022-12-26T03:05:14.745Z, 41.37
2022-12-26T03:06:14.764Z, 41.34
2022-12-26T03:07:14.828Z, 41.35
2022-12-26T03:08:14.820Z, 41.34
2022-12-26T03:09:14.854Z, 41.32
2022-12-26T03:10:14.820Z, 41.30
2022-12-26T03:11:14.897Z, 41.25
2022-12-26T03:12:14.874Z, 41.26
2022-12-26T03:13:14.883Z, 41.24
2022-12-26T03:14:14.887Z, 41.26
2022-12-26T03:15:14.872Z, 41.23
2022-12-26T03:16:14.969Z, 41.15
2022-12-26T03:17:14.933Z, 41.08
2022-12-26T03:18:14.948Z, 41.06
2022-12-26T03:19:14.983Z, 41.07
2022-12-26T03:20:14.964Z, 41.09
2022-12-26T03:21:14.971Z, 41.05
2022-12-26T03:22:14.944Z, 41.02
2022-12-26T03:23:14.985Z, 41.00
2022-12-26T03:24:15.017Z, 41.00
2022-12-26T03:25:14.996Z, 40.94
2022-12-26T03:26:15.085Z, 40.92
2022-12-26T03:27:15.044Z, 40.86
2022-12-26T03:28:15.124Z, 40.82
2022-12-26T03:29:18.809Z, 40.81
2022-12-26T03:30:15.132Z, 40.79
2022-12-26T03:31:15.211Z, 40.76
2022-12-26T03:32:15.134Z, 40.77
2022-12-26T03:33:15.156Z, 40.75
2022-12-26T03:34:15.137Z, 40.66
2022-12-26T03:35:15.191Z, 40.69
2022-12-26T03:36:15.167Z, 40.64
2022-12-26T03:37:15.194Z, 40.66
2022-12-26T03:38:15.178Z, 40.62
2022-12-26T03:39:15.197Z, 40.62
2022-12-26T03:40:15.196Z, 40.60
2022-12-26T03:41:15.178Z, 40.57
2022-12-26T03:42:15.243Z, 40.49
2022-12-26T03:43:15.257Z, 40.50
2022-12-26T03:44:15.320Z, 40.52
2022-12-26T03:45:15.277Z, 40.50
2022-12-26T03:46:15.340Z, 40.47
2022-12-26T03:47:15.282Z, 40.50
2022-12-26T03:48:15.269Z, 40.43
2022-12-26T03:49:15.347Z, 40.41
2022-12-26T03:50:15.327Z, 40.34
2022-12-26T03:51:15.328Z, 40.33
2022-12-26T03:52:15.336Z, 40.34
2022-12-26T03:53:15.323Z, 40.32
2022-12-26T03:54:15.340Z, 40.31
2022-12-26T03:55:15.363Z, 40.28
2022-12-26T03:56:15.432Z, 40.29
2022-12-26T03:57:15.422Z, 40.29
2022-12-26T03:58:15.468Z, 40.28
2022-12-26T03:59:15.488Z, 40.29
2022-12-26T04:00:15.446Z, 40.29
2022-12-26T04:01:15.772Z, 40.23
2022-12-26T04:02:15.634Z, 40.15
2022-12-26T04:03:15.561Z, 40.16
2022-12-26T04:04:15.515Z, 40.13
2022-12-26T04:05:15.538Z, 40.09
2022-12-26T04:06:15.549Z, 40.03
2022-12-26T04:07:15.559Z, 40.01
2022-12-26T04:08:18.882Z, 39.97
2022-12-26T04:09:15.558Z, 39.97
2022-12-26T04:10:15.537Z, 39.97
2022-12-26T04:11:15.544Z, 39.92
2022-12-26T04:12:15.606Z, 39.89
2022-12-26T04:13:15.588Z, 39.93
2022-12-26T04:14:15.626Z, 39.85
2022-12-26T04:15:15.617Z, 39.83
2022-12-26T04:16:15.670Z, 39.82
2022-12-26T04:17:15.625Z, 39.84
2022-12-26T04:18:15.626Z, 39.86
2022-12-26T04:19:15.715Z, 39.85
2022-12-26T04:20:15.659Z, 39.81
2022-12-26T04:21:15.720Z, 39.79
2022-12-26T04:22:15.697Z, 39.77
2022-12-26T04:23:15.718Z, 39.72
2022-12-26T04:24:15.699Z, 39.65
2022-12-26T04:25:15.718Z, 39.67
2022-12-26T04:26:15.717Z, 39.64
2022-12-26T04:27:15.726Z, 39.66
2022-12-26T04:28:15.767Z, 39.68
2022-12-26T04:29:15.748Z, 39.64
2022-12-26T04:30:15.847Z, 39.64
2022-12-26T04:31:15.862Z, 40.10
2022-12-26T04:32:15.868Z, 41.44
2022-12-26T04:33:15.838Z, 41.83
2022-12-26T04:34:15.851Z, 41.87
2022-12-26T04:35:15.833Z, 41.75
2022-12-26T04:36:15.850Z, 41.62
2022-12-26T04:37:15.840Z, 41.36
2022-12-26T04:38:15.869Z, 40.93
2022-12-26T04:39:15.927Z, 40.36
2022-12-26T04:40:15.905Z, 39.76
2022-12-26T04:41:15.919Z, 39.07
2022-12-26T04:42:15.902Z, 38.24
2022-12-26T04:43:49.689Z, 37.28
2022-12-26T04:44:15.987Z, 36.27
2022-12-26T04:45:16.014Z, 35.06
2022-12-26T04:46:16.075Z, 33.26
2022-12-26T04:47:15.997Z, 31.16
2022-12-26T04:48:15.997Z, 29.22
2022-12-26T04:49:16.052Z, 31.42
2022-12-26T04:50:16.042Z, 36.57
2022-12-26T04:51:16.086Z, 40.89
2022-12-26T04:52:16.057Z, 43.40
2022-12-26T04:53:16.106Z, 41.80
2022-12-26T04:54:16.089Z, 39.69
2022-12-26T04:55:16.084Z, 37.90
2022-12-26T04:56:16.140Z, 36.11
2022-12-26T04:57:16.121Z, 34.53
2022-12-26T04:58:16.128Z, 33.16
2022-12-26T04:59:16.127Z, 31.57
2022-12-26T05:00:16.121Z, 29.53
2022-12-26T05:01:16.313Z, 28.68
2022-12-26T05:02:16.268Z, 29.95
2022-12-26T05:03:18.701Z, 36.59
2022-12-26T05:04:16.223Z, 42.18
2022-12-26T05:05:16.215Z, 45.76
2022-12-26T05:06:16.215Z, 44.72
2022-12-26T05:07:16.215Z, 43.23
2022-12-26T05:08:16.305Z, 42.35
2022-12-26T05:09:16.285Z, 41.20
2022-12-26T05:10:16.325Z, 40.09
2022-12-26T05:11:16.328Z, 39.12
2022-12-26T05:12:16.323Z, 38.19
2022-12-26T05:13:16.359Z, 37.27
2022-12-26T05:14:16.335Z, 36.35
2022-12-26T05:15:16.367Z, 35.56
2022-12-26T05:16:16.410Z, 34.86
2022-12-26T05:17:16.406Z, 34.13
2022-12-26T05:18:16.381Z, 33.34
2022-12-26T05:19:16.421Z, 32.52
2022-12-26T05:20:16.403Z, 31.84
2022-12-26T05:21:16.396Z, 35.51
2022-12-26T05:22:16.394Z, 43.70
2022-12-26T05:23:16.403Z, 49.17
2022-12-26T05:24:16.411Z, 48.69
2022-12-26T05:25:16.451Z, 46.91
2022-12-26T05:26:16.494Z, 45.89
2022-12-26T05:27:16.493Z, 45.28
2022-12-26T05:28:16.496Z, 44.55
2022-12-26T05:29:16.491Z, 43.95
2022-12-26T05:30:16.597Z, 43.40
2022-12-26T05:31:16.713Z, 42.89
2022-12-26T05:32:16.569Z, 42.38
2022-12-26T05:33:16.563Z, 41.87
2022-12-26T05:34:16.559Z, 41.36
2022-12-26T05:35:16.598Z, 40.92
2022-12-26T05:36:16.577Z, 40.47
2022-12-26T05:37:16.616Z, 40.04
2022-12-26T05:38:16.596Z, 39.63
2022-12-26T05:39:16.634Z, 39.23
2022-12-26T05:40:16.616Z, 38.84
2022-12-26T05:41:16.719Z, 38.42
2022-12-26T05:42:16.689Z, 37.90
2022-12-26T05:43:16.706Z, 37.43
2022-12-26T05:44:16.683Z, 37.05
2022-12-26T05:45:16.731Z, 36.69
2022-12-26T05:46:16.867Z, 36.31
2022-12-26T05:47:16.767Z, 35.91
2022-12-26T05:48:16.743Z, 35.54
2022-12-26T05:49:16.757Z, 35.04
2022-12-26T05:50:16.740Z, 34.62
2022-12-26T05:51:16.753Z, 34.21
2022-12-26T05:52:16.781Z, 33.80
2022-12-26T05:53:16.772Z, 33.88
2022-12-26T05:54:16.797Z, 41.36
2022-12-26T05:55:16.808Z, 48.86
2022-12-26T05:56:16.830Z, 50.82
2022-12-26T05:57:16.899Z, 49.32
2022-12-26T05:58:16.871Z, 47.68
2022-12-26T05:59:16.881Z, 46.36
2022-12-26T06:00:16.874Z, 45.69
2022-12-26T06:01:16.981Z, 45.12
2022-12-26T06:02:17.121Z, 44.62
2022-12-26T06:03:17.135Z, 44.12
2022-12-26T06:04:16.932Z, 43.69
2022-12-26T06:05:17.013Z, 43.23
2022-12-26T06:06:17.003Z, 42.74
2022-12-26T06:07:16.996Z, 42.35
2022-12-26T06:08:17.022Z, 41.95
2022-12-26T06:09:17.004Z, 41.52
2022-12-26T06:10:17.006Z, 41.10
2022-12-26T06:11:17.005Z, 40.71
2022-12-26T06:12:17.017Z, 40.35
2022-12-26T06:13:17.001Z, 40.06
2022-12-26T06:14:17.010Z, 39.73
2022-12-26T06:15:17.035Z, 39.38
2022-12-26T06:16:17.067Z, 39.08
2022-12-26T06:17:17.111Z, 38.85
2022-12-26T06:18:17.094Z, 38.62
2022-12-26T06:19:17.149Z, 38.39
2022-12-26T06:20:17.131Z, 38.23
2022-12-26T06:21:17.141Z, 38.06
2022-12-26T06:22:17.154Z, 37.95
2022-12-26T06:23:17.130Z, 37.82
2022-12-26T06:24:17.199Z, 37.71
2022-12-26T06:25:17.228Z, 37.60
2022-12-26T06:26:17.243Z, 37.47
2022-12-26T06:27:17.225Z, 37.35
2022-12-26T06:28:17.244Z, 37.26
2022-12-26T06:29:17.226Z, 37.15
2022-12-26T06:30:17.271Z, 37.03
2022-12-26T06:31:17.266Z, 36.92
2022-12-26T06:32:17.285Z, 36.82
2022-12-26T06:33:17.273Z, 36.69
2022-12-26T06:34:17.326Z, 36.60
2022-12-26T06:35:17.286Z, 36.45
2022-12-26T06:36:17.318Z, 36.38
2022-12-26T06:37:17.311Z, 36.25
2022-12-26T06:38:17.315Z, 36.17
2022-12-26T06:39:17.350Z, 36.08
2022-12-26T06:40:17.328Z, 36.03
2022-12-26T06:41:17.430Z, 35.96
2022-12-26T06:42:17.412Z, 35.87
2022-12-26T06:43:17.419Z, 35.83
2022-12-26T06:44:18.748Z, 35.74
2022-12-26T06:45:17.411Z, 35.66
2022-12-26T06:46:17.589Z, 35.58
2022-12-26T06:47:17.581Z, 35.50
2022-12-26T06:48:17.446Z, 35.43
2022-12-26T06:49:17.447Z, 35.37
2022-12-26T06:50:17.454Z, 35.33
2022-12-26T06:51:17.495Z, 35.23
2022-12-26T06:52:17.468Z, 35.17
2022-12-26T06:53:17.509Z, 35.12
2022-12-26T06:54:17.493Z, 35.10
2022-12-26T06:55:17.574Z, 35.03
2022-12-26T06:56:17.563Z, 34.94
2022-12-26T06:57:17.573Z, 34.88
2022-12-26T06:58:17.567Z, 34.83
2022-12-26T06:59:17.562Z, 34.81
2022-12-26T07:00:17.626Z, 34.73
2022-12-26T07:01:17.758Z, 34.60
2022-12-26T07:02:17.832Z, 35.33
2022-12-26T07:03:17.692Z, 38.91
2022-12-26T07:04:17.686Z, 43.27
2022-12-26T07:05:17.678Z, 48.03
2022-12-26T07:06:17.661Z, 52.51
2022-12-26T07:07:17.658Z, 56.74
2022-12-26T07:08:17.671Z, 60.84
2022-12-26T07:09:17.741Z, 69.36
2022-12-26T07:10:17.726Z, 52.69
2022-12-26T07:11:17.763Z, 52.52
2022-12-26T07:12:17.777Z, 53.59
2022-12-26T07:13:17.756Z, 55.03
2022-12-26T07:14:17.757Z, 57.63
2022-12-26T07:15:17.755Z, 61.39
2022-12-26T07:16:17.824Z, 66.76
2022-12-26T07:17:17.780Z, 53.30
2022-12-26T07:18:17.838Z, 53.87
2022-12-26T07:19:17.838Z, 55.02
2022-12-26T07:20:17.876Z, 56.89
2022-12-26T07:21:17.863Z, 59.80
2022-12-26T07:22:17.898Z, 67.68
2022-12-26T07:23:17.872Z, 58.73
2022-12-26T07:24:17.933Z, 53.33
2022-12-26T07:25:17.883Z, 54.67
2022-12-26T07:26:17.935Z, 55.91
2022-12-26T07:27:17.915Z, 56.66
2022-12-26T07:28:17.920Z, 57.34
2022-12-26T07:29:17.999Z, 58.85
2022-12-26T07:30:17.967Z, 59.19
2022-12-26T07:31:18.086Z, 58.86
2022-12-26T07:32:17.979Z, 58.23
2022-12-26T07:33:17.978Z, 57.86
2022-12-26T07:34:18.051Z, 57.54
2022-12-26T07:35:18.044Z, 57.31
2022-12-26T07:36:18.107Z, 57.10
2022-12-26T07:37:18.076Z, 56.85
2022-12-26T07:38:18.081Z, 56.58
2022-12-26T07:39:18.077Z, 56.40
2022-12-26T07:40:18.069Z, 56.23
2022-12-26T07:41:18.119Z, 55.99
2022-12-26T07:42:18.105Z, 55.79
2022-12-26T07:43:18.111Z, 55.56
2022-12-26T07:44:18.113Z, 55.42
2022-12-26T07:45:18.148Z, 55.21
2022-12-26T07:46:18.178Z, 55.00
2022-12-26T07:47:18.182Z, 54.80
2022-12-26T07:48:18.155Z, 54.57
2022-12-26T07:49:18.224Z, 54.36
2022-12-26T07:50:18.228Z, 54.09
2022-12-26T07:51:18.217Z, 53.98
2022-12-26T07:52:18.210Z, 53.81
2022-12-26T07:53:18.214Z, 53.62
2022-12-26T07:54:18.226Z, 53.47
2022-12-26T07:55:18.223Z, 53.24
2022-12-26T07:56:18.319Z, 53.02
2022-12-26T07:57:46.147Z, 52.81
2022-12-26T07:58:18.344Z, 52.70
2022-12-26T07:59:18.355Z, 52.50
2022-12-26T08:00:18.384Z, 52.33
2022-12-26T08:01:18.540Z, 52.16
2022-12-26T08:02:18.634Z, 51.95
2022-12-26T08:03:18.514Z, 51.85
2022-12-26T08:04:18.415Z, 51.66
2022-12-26T08:05:18.447Z, 51.51
2022-12-26T08:06:18.439Z, 51.36
2022-12-26T08:07:18.417Z, 51.24
2022-12-26T08:08:18.432Z, 51.09
2022-12-26T08:09:18.423Z, 50.94
2022-12-26T08:10:18.421Z, 50.84
2022-12-26T08:11:18.477Z, 50.72
2022-12-26T08:12:18.444Z, 50.60
2022-12-26T08:13:18.441Z, 50.52
2022-12-26T08:14:18.500Z, 50.32
2022-12-26T08:15:18.496Z, 50.24
2022-12-26T08:16:18.631Z, 50.09
2022-12-26T08:17:18.652Z, 50.00
2022-12-26T08:18:18.551Z, 49.82
2022-12-26T08:19:18.531Z, 49.69
2022-12-26T08:20:18.594Z, 49.55
2022-12-26T08:21:18.586Z, 49.44
2022-12-26T08:22:18.586Z, 49.33
2022-12-26T08:23:18.581Z, 49.29
2022-12-26T08:24:18.584Z, 49.20
2022-12-26T08:25:21.829Z, 49.16
2022-12-26T08:26:18.594Z, 49.03
2022-12-26T08:27:18.661Z, 48.91
2022-12-26T08:28:18.652Z, 48.85
2022-12-26T08:29:18.652Z, 48.73
2022-12-26T08:30:18.690Z, 48.63
2022-12-26T08:31:18.718Z, 48.58
2022-12-26T08:32:18.691Z, 48.48
2022-12-26T08:33:18.713Z, 48.34
2022-12-26T08:34:18.700Z, 48.18
2022-12-26T08:35:18.752Z, 48.11
2022-12-26T08:36:18.721Z, 48.11
2022-12-26T08:37:18.731Z, 47.98
2022-12-26T08:38:18.730Z, 47.86
2022-12-26T08:39:18.758Z, 47.82
2022-12-26T08:40:41.485Z, 47.83
2022-12-26T08:41:18.771Z, 47.69
2022-12-26T08:42:18.763Z, 47.62
2022-12-26T08:43:34.814Z, 47.57
2022-12-26T08:44:27.572Z, 47.45
2022-12-26T08:45:18.788Z, 47.42
2022-12-26T08:46:18.882Z, 47.41
2022-12-26T08:47:18.842Z, 47.27
2022-12-26T08:48:18.878Z, 47.18
2022-12-26T08:49:18.856Z, 47.14
2022-12-26T08:50:18.935Z, 47.05
2022-12-26T08:51:18.891Z, 46.93
2022-12-26T08:52:18.954Z, 46.90
2022-12-26T08:53:18.924Z, 46.86
2022-12-26T08:54:18.939Z, 46.75
2022-12-26T08:55:18.968Z, 46.59
2022-12-26T08:56:18.936Z, 46.57
2022-12-26T08:57:19.010Z, 46.55
2022-12-26T08:58:19.001Z, 46.53
2022-12-26T08:59:18.988Z, 46.44
2022-12-26T09:00:18.997Z, 46.36
2022-12-26T09:01:19.159Z, 46.35
2022-12-26T09:02:19.166Z, 46.21
2022-12-26T09:03:19.058Z, 46.07
2022-12-26T09:04:19.090Z, 46.11
2022-12-26T09:05:19.080Z, 46.03
2022-12-26T09:06:19.084Z, 45.93
2022-12-26T09:07:19.075Z, 45.94
2022-12-26T09:08:19.128Z, 45.89
2022-12-26T09:09:19.161Z, 45.85
2022-12-26T09:10:19.116Z, 45.86
2022-12-26T09:11:19.197Z, 45.82
2022-12-26T09:12:19.175Z, 45.78
2022-12-26T09:13:19.201Z, 45.63
2022-12-26T09:14:19.188Z, 45.62
2022-12-26T09:15:19.224Z, 45.51
2022-12-26T09:16:19.231Z, 45.46
2022-12-26T09:17:19.238Z, 45.36
2022-12-26T09:18:19.277Z, 45.33
2022-12-26T09:19:19.265Z, 45.28
2022-12-26T09:20:19.300Z, 45.18
2022-12-26T09:21:19.280Z, 45.13
2022-12-26T09:22:19.321Z, 45.06
2022-12-26T09:23:19.296Z, 45.02
2022-12-26T09:24:19.309Z, 44.97
2022-12-26T09:25:19.355Z, 44.92
2022-12-26T09:26:19.326Z, 44.82
2022-12-26T09:27:19.327Z, 44.80
2022-12-26T09:28:19.327Z, 44.79
2022-12-26T09:29:19.323Z, 44.73
2022-12-26T09:30:19.355Z, 44.74
2022-12-26T09:31:19.455Z, 44.62
2022-12-26T09:32:19.448Z, 44.63
2022-12-26T09:33:19.424Z, 44.62
2022-12-26T09:34:19.471Z, 44.54
2022-12-26T09:35:19.440Z, 44.50
2022-12-26T09:36:19.482Z, 44.52
2022-12-26T09:37:19.459Z, 44.44
2022-12-26T09:38:19.511Z, 44.38
2022-12-26T09:39:19.491Z, 44.31
2022-12-26T09:40:19.526Z, 44.25
2022-12-26T09:41:19.532Z, 44.23
2022-12-26T09:42:19.522Z, 44.22
2022-12-26T09:43:19.530Z, 44.17
2022-12-26T09:44:19.523Z, 44.11
2022-12-26T09:45:19.567Z, 44.08
2022-12-26T09:46:19.543Z, 44.00
2022-12-26T09:47:19.595Z, 44.03
2022-12-26T09:48:19.598Z, 43.97
2022-12-26T09:49:19.576Z, 43.95
2022-12-26T09:50:19.575Z, 43.79
2022-12-26T09:51:19.613Z, 43.76
2022-12-26T09:52:19.599Z, 43.72
2022-12-26T09:53:19.619Z, 43.63
2022-12-26T09:54:19.621Z, 43.63
2022-12-26T09:55:19.640Z, 43.61
2022-12-26T09:57:01.325Z, 43.56
2022-12-26T09:57:19.696Z, 43.46
2022-12-26T09:58:19.716Z, 43.43
2022-12-26T09:59:19.700Z, 43.45
2022-12-26T10:00:19.712Z, 43.34
2022-12-26T10:01:19.883Z, 43.35
2022-12-26T10:02:19.972Z, 43.32
2022-12-26T10:03:19.806Z, 43.31
2022-12-26T10:04:23.619Z, 43.23
2022-12-26T10:05:19.824Z, 43.24
2022-12-26T10:06:19.821Z, 43.17
2022-12-26T10:07:19.828Z, 43.14
2022-12-26T10:08:19.823Z, 43.02
2022-12-26T10:09:19.837Z, 43.05
2022-12-26T10:10:19.819Z, 43.03
2022-12-26T10:11:19.835Z, 42.97
2022-12-26T10:12:19.837Z, 42.93
2022-12-26T10:13:19.847Z, 42.92
2022-12-26T10:14:22.019Z, 42.87
2022-12-26T10:15:19.919Z, 42.86
2022-12-26T10:16:20.012Z, 42.79
2022-12-26T10:17:19.938Z, 42.73
2022-12-26T10:18:19.984Z, 42.68
2022-12-26T10:19:19.972Z, 42.73
2022-12-26T10:20:20.000Z, 42.62
2022-12-26T10:21:19.991Z, 42.62
2022-12-26T10:22:20.026Z, 42.59
2022-12-26T10:23:20.023Z, 42.55
2022-12-26T10:24:20.033Z, 42.54
2022-12-26T10:25:20.031Z, 42.53
2022-12-26T10:26:20.035Z, 42.44
2022-12-26T10:27:20.104Z, 42.39
2022-12-26T10:28:20.082Z, 42.37
2022-12-26T10:29:20.140Z, 42.35
2022-12-26T10:30:20.180Z, 42.31
2022-12-26T10:31:20.194Z, 42.30
2022-12-26T10:32:25.962Z, 42.21
2022-12-26T10:33:20.183Z, 42.20
2022-12-26T10:34:20.146Z, 42.21
2022-12-26T10:35:20.194Z, 42.15
2022-12-26T10:36:20.184Z, 42.05
2022-12-26T10:37:20.201Z, 42.00
2022-12-26T10:38:25.576Z, 41.98
2022-12-26T10:39:20.188Z, 42.00
2022-12-26T10:40:20.301Z, 41.94
2022-12-26T10:41:20.217Z, 41.92
2022-12-26T10:42:20.206Z, 41.89
2022-12-26T10:43:20.217Z, 41.89
2022-12-26T10:44:25.698Z, 41.88
2022-12-26T10:45:20.287Z, 41.84
2022-12-26T10:46:20.360Z, 41.81
2022-12-26T10:47:20.289Z, 41.77
2022-12-26T10:48:20.358Z, 41.75
2022-12-26T10:49:20.340Z, 41.72
2022-12-26T10:50:27.002Z, 41.68
2022-12-26T10:51:20.359Z, 41.68
2022-12-26T10:52:20.359Z, 41.58
2022-12-26T10:53:20.412Z, 41.59
2022-12-26T10:54:20.411Z, 41.56
2022-12-26T10:55:29.060Z, 41.56
2022-12-26T10:56:20.446Z, 41.50
2022-12-26T10:57:20.466Z, 41.39
2022-12-26T10:58:20.472Z, 41.40
2022-12-26T10:59:20.559Z, 41.42
2022-12-26T11:00:20.486Z, 41.36
2022-12-26T11:01:20.539Z, 41.86
2022-12-26T11:02:20.697Z, 43.23
2022-12-26T11:03:20.657Z, 43.56
2022-12-26T11:04:44.482Z, 43.45
2022-12-26T11:05:40.377Z, 42.66
2022-12-26T11:06:20.537Z, 41.38
2022-12-26T11:07:20.584Z, 39.94
2022-12-26T11:08:20.560Z, 38.47
2022-12-26T11:09:20.554Z, 37.15
2022-12-26T11:10:20.572Z, 35.92
2022-12-26T11:11:20.550Z, 33.37
2022-12-26T11:12:20.635Z, 30.57
2022-12-26T11:13:20.618Z, 28.19
2022-12-26T11:14:20.672Z, 27.30
2022-12-26T11:15:20.662Z, 31.23
2022-12-26T11:16:20.731Z, 34.75
2022-12-26T11:17:20.676Z, 36.93
2022-12-26T11:18:20.672Z, 38.33
2022-12-26T11:19:20.668Z, 39.54
2022-12-26T11:20:20.708Z, 40.92
2022-12-26T11:21:20.694Z, 39.54
2022-12-26T11:22:20.693Z, 36.25
2022-12-26T11:23:20.699Z, 33.34
2022-12-26T11:24:20.729Z, 30.52
2022-12-26T11:25:20.823Z, 27.78
2022-12-26T11:26:20.779Z, 26.38
2022-12-26T11:27:20.819Z, 27.82
2022-12-26T11:28:20.794Z, 33.14
2022-12-26T11:29:20.882Z, 37.30
2022-12-26T11:30:20.868Z, 40.07
2022-12-26T11:31:20.897Z, 42.65
2022-12-26T11:32:20.831Z, 45.81
2022-12-26T11:33:20.854Z, 46.81
2022-12-26T11:34:20.935Z, 46.75
2022-12-26T11:35:20.905Z, 46.51
2022-12-26T11:36:20.905Z, 46.33
2022-12-26T11:37:20.916Z, 46.13
2022-12-26T11:38:20.922Z, 45.92
2022-12-26T11:39:20.904Z, 45.74
2022-12-26T11:40:20.926Z, 45.62
2022-12-26T11:41:20.953Z, 45.39
2022-12-26T11:42:20.952Z, 45.24
2022-12-26T11:43:21.037Z, 45.11
2022-12-26T11:44:21.011Z, 44.96
2022-12-26T11:45:21.017Z, 44.81
2022-12-26T11:46:21.058Z, 44.64
2022-12-26T11:47:21.014Z, 44.49
2022-12-26T11:48:21.094Z, 44.33
2022-12-26T11:49:21.058Z, 44.20
2022-12-26T11:50:21.101Z, 44.06
2022-12-26T11:51:21.057Z, 43.86
2022-12-26T11:52:21.089Z, 43.72
2022-12-26T11:53:21.086Z, 43.60
2022-12-26T11:54:21.123Z, 43.45
2022-12-26T11:55:21.182Z, 43.31
2022-12-26T11:56:21.161Z, 43.14
2022-12-26T11:57:21.175Z, 43.04
2022-12-26T11:58:21.159Z, 42.92
2022-12-26T11:59:21.189Z, 42.76
2022-12-26T12:00:21.255Z, 42.59
2022-12-26T12:01:21.309Z, 42.49
2022-12-26T12:02:21.367Z, 42.34
2022-12-26T12:03:21.315Z, 42.22
2022-12-26T12:04:21.233Z, 42.10
2022-12-26T12:05:21.235Z, 41.94
2022-12-26T12:06:21.248Z, 41.83
2022-12-26T12:07:21.355Z, 41.70
2022-12-26T12:08:21.338Z, 41.54
2022-12-26T12:09:21.351Z, 41.41
2022-12-26T12:10:21.333Z, 41.32
2022-12-26T12:11:21.373Z, 41.21
2022-12-26T12:12:21.404Z, 41.05
2022-12-26T12:13:21.383Z, 40.91
2022-12-26T12:14:21.376Z, 40.79
2022-12-26T12:15:21.404Z, 40.72
2022-12-26T12:16:21.415Z, 40.61
2022-12-26T12:17:21.470Z, 40.49
2022-12-26T12:18:21.440Z, 40.34
2022-12-26T12:19:21.474Z, 40.24
2022-12-26T12:20:21.464Z, 40.16
2022-12-26T12:21:21.485Z, 40.06
2022-12-26T12:22:21.476Z, 39.96
2022-12-26T12:23:21.472Z, 39.87
2022-12-26T12:24:21.527Z, 39.79
2022-12-26T12:25:21.498Z, 39.70
2022-12-26T12:26:21.589Z, 39.61
2022-12-26T12:27:21.557Z, 39.47
2022-12-26T12:28:21.598Z, 39.37